Time;durP1;ratioP1;P1;durP2;ratioP2;P2;SDS_P1;SDS_P2;PMS_P1;PMS_P2;Temp;Humidity;BMP_temperature;BMP_pressure;BME280_temperature;BME280_humidity;BME280_pressure;Samples;Min_cycle;Max_cycle;Signal;HPM_P1;HPM_P2
2022/01/22 00:01:24;;;;;;;12.73;8.07;;;;;;;;;;5028300;28;20311;-73
2022/01/22 00:03:52;;;;;;;8.77;5.78;;;;;;;;;;5031091;28;20475;-73
2022/01/22 00:06:19;;;;;;;9.07;5.93;;;;;;;;;;5023663;28;20061;-74
2022/01/22 00:08:47;;;;;;;10.05;7.45;;;;;;;;;;5031099;28;20384;-74
2022/01/22 00:11:14;;;;;;;8.13;5.00;;;;;;;;;;5032791;28;20445;-73
2022/01/22 00:16:27;;;;;;;10.70;6.75;;;;;;;;;;5032982;28;20053;-75
2022/01/22 00:18:55;;;;;;;8.05;7.22;;;;;;;;;;5034200;28;20037;-75
2022/01/22 00:21:22;;;;;;;8.45;7.35;;;;;;;;;;5036321;28;20037;-74
2022/01/22 00:23:56;;;;;;;9.82;6.18;;;;;;;;;;5037374;28;20064;-72
2022/01/22 00:26:23;;;;;;;8.77;6.07;;;;;;;;;;5037732;28;20088;-72
2022/01/22 00:28:51;;;;;;;6.30;5.35;;;;;;;;;;5028510;28;20400;-74
2022/01/22 00:31:18;;;;;;;9.15;6.07;;;;;;;;;;5033017;28;20076;-73
2022/01/22 00:33:45;;;;;;;11.38;6.57;;;;;;;;;;5033894;28;20059;-73
2022/01/22 00:36:13;;;;;;;11.65;7.35;;;;;;;;;;5033753;28;20049;-73
2022/01/22 00:38:40;;;;;;;9.13;5.10;;;;;;;;;;5033986;28;20210;-73
2022/01/22 00:41:08;;;;;;;11.27;6.32;;;;;;;;;;5036921;28;20037;-74
2022/01/22 00:43:35;;;;;;;7.80;6.05;;;;;;;;;;5037234;28;20596;-75
2022/01/22 00:46:03;;;;;;;8.63;6.53;;;;;;;;;;5036802;28;20048;-73
2022/01/22 00:48:30;;;;;;;7.90;6.28;;;;;;;;;;5036188;28;20041;-75
2022/01/22 00:50:59;;;;;;;5.18;4.63;;;;;;;;;;5030473;28;20214;-73
2022/01/22 00:53:27;;;;;;;7.25;5.97;;;;;;;;;;5036062;28;20123;-74
2022/01/22 00:55:55;;;;;;;6.78;5.15;;;;;;;;;;5036557;28;20041;-74
2022/01/22 00:58:22;;;;;;;5.30;4.80;;;;;;;;;;5034899;28;20047;-74
2022/01/22 01:00:50;;;;;;;8.52;5.55;;;;;;;;;;5030041;28;20148;-74
2022/01/22 01:03:17;;;;;;;8.32;6.32;;;;;;;;;;5019007;28;20052;-73
2022/01/22 01:05:45;;;;;;;7.30;5.80;;;;;;;;;;5035390;28;20044;-75
2022/01/22 01:08:12;;;;;;;8.05;5.45;;;;;;;;;;5033156;28;20064;-74
2022/01/22 01:10:40;;;;;;;5.65;5.13;;;;;;;;;;5015215;28;20500;-73
2022/01/22 01:13:07;;;;;;;6.78;5.85;;;;;;;;;;5035335;28;20465;-75
2022/01/22 01:15:40;;;;;;;10.65;5.95;;;;;;;;;;5033804;28;20130;-74
2022/01/22 01:34:27;;;;;;;8.20;5.15;;;;;;;;;;5034725;28;20697;-75
2022/01/22 01:36:55;;;;;;;5.63;4.15;;;;;;;;;;5049879;28;20041;-76
2022/01/22 01:39:28;;;;;;;9.60;4.95;;;;;;;;;;5031702;28;20068;-77
2022/01/22 01:42:16;;;;;;;9.75;5.03;;;;;;;;;;5033000;28;20103;-76
2022/01/22 01:44:44;;;;;;;5.53;4.57;;;;;;;;;;5032969;28;20048;-77
2022/01/22 01:47:16;;;;;;;7.22;3.95;;;;;;;;;;5017569;28;20044;-77
2022/01/22 01:49:45;;;;;;;9.13;4.22;;;;;;;;;;5037703;28;20056;-76
2022/01/22 01:52:31;;;;;;;8.05;4.50;;;;;;;;;;5029021;28;20049;-76
2022/01/22 01:55:12;;;;;;;8.68;5.03;;;;;;;;;;5030691;28;20053;-77
2022/01/22 01:57:41;;;;;;;6.90;4.20;;;;;;;;;;5028679;28;20633;-77
2022/01/22 02:00:32;;;;;;;10.10;5.13;;;;;;;;;;5036304;28;20701;-77
2022/01/22 02:03:00;;;;;;;4.45;4.05;;;;;;;;;;5042062;28;20068;-76
2022/01/22 02:05:35;;;;;;;4.88;4.30;;;;;;;;;;5042464;28;20037;-76
2022/01/22 02:08:04;;;;;;;4.18;3.80;;;;;;;;;;5028095;28;20045;-76
2022/01/22 02:10:43;;;;;;;4.20;3.88;;;;;;;;;;5032120;28;20044;-76
2022/01/22 02:13:59;;;;;;;4.65;3.17;;;;;;;;;;5026589;28;20060;-75
2022/01/22 02:25:17;;;;;;;4.00;3.60;;;;;;;;;;5055984;28;20037;-76
2022/01/22 02:27:45;;;;;;;4.45;3.40;;;;;;;;;;5053584;28;20053;-76
2022/01/22 02:30:21;;;;;;;3.90;3.55;;;;;;;;;;5050160;28;20474;-76
2022/01/22 02:36:18;;;;;;;3.28;2.85;;;;;;;;;;5030278;28;20041;-76
2022/01/22 02:38:56;;;;;;;3.40;3.10;;;;;;;;;;5064628;28;20558;-77
2022/01/22 02:41:27;;;;;;;3.30;3.00;;;;;;;;;;5044570;28;20044;-77
2022/01/22 02:43:56;;;;;;;3.78;3.03;;;;;;;;;;5036459;28;20467;-77
2022/01/22 02:46:25;;;;;;;5.22;3.20;;;;;;;;;;5045389;28;20124;-77
2022/01/22 02:48:54;;;;;;;3.53;3.10;;;;;;;;;;5036997;28;20099;-76
2022/01/22 02:51:23;;;;;;;3.47;3.17;;;;;;;;;;5054191;28;20045;-77
2022/01/22 02:53:54;;;;;;;3.63;3.33;;;;;;;;;;5040698;28;20041;-77
2022/01/22 02:56:23;;;;;;;3.57;2.73;;;;;;;;;;5040882;28;20045;-77
2022/01/22 02:58:52;;;;;;;3.92;3.10;;;;;;;;;;5002525;28;20387;-77
2022/01/22 03:01:21;;;;;;;5.72;2.85;;;;;;;;;;5035805;28;20057;-77
2022/01/22 03:03:49;;;;;;;4.50;2.90;;;;;;;;;;5036169;28;20451;-76
2022/01/22 03:06:17;;;;;;;4.10;2.70;;;;;;;;;;5036492;28;20088;-76
2022/01/22 03:08:46;;;;;;;5.07;2.65;;;;;;;;;;5053760;28;20057;-76
2022/01/22 03:11:25;;;;;;;3.05;2.85;;;;;;;;;;5026881;28;20058;-76
2022/01/22 03:16:52;;;;;;;3.05;2.75;;;;;;;;;;5023409;28;20117;-76
2022/01/22 03:19:43;;;;;;;2.92;2.35;;;;;;;;;;5016860;28;20495;-78
2022/01/22 03:22:22;;;;;;;8.18;2.42;;;;;;;;;;5018349;28;20049;-76
2022/01/22 03:27:35;;;;;;;2.50;2.30;;;;;;;;;;5016585;28;20123;-74
2022/01/22 03:30:05;;;;;;;2.25;2.15;;;;;;;;;;5019503;28;20041;-75
2022/01/22 03:32:43;;;;;;;2.95;2.72;;;;;;;;;;5025714;28;20191;-75
2022/01/22 03:35:35;;;;;;;3.03;2.65;;;;;;;;;;5018591;28;20388;-75
2022/01/22 03:37:59;;;;;;;2.20;2.10;;;;;;;;;;5053246;28;20449;-74
2022/01/22 03:40:29;;;;;;;3.38;2.55;;;;;;;;;;5015967;28;20045;-75
2022/01/22 03:42:57;;;;;;;2.15;1.95;;;;;;;;;;5033617;28;20046;-75
2022/01/22 03:45:25;;;;;;;3.28;2.60;;;;;;;;;;5016449;28;20092;-75
2022/01/22 03:47:55;;;;;;;6.32;2.80;;;;;;;;;;5009972;28;20046;-75
2022/01/22 03:50:22;;;;;;;4.10;2.58;;;;;;;;;;5009263;28;20050;-75
2022/01/22 03:52:50;;;;;;;3.40;2.97;;;;;;;;;;5000338;28;20041;-75
2022/01/22 03:55:36;;;;;;;3.60;2.80;;;;;;;;;;5015058;28;20088;-75
2022/01/22 03:58:23;;;;;;;2.67;2.10;;;;;;;;;;4960639;28;20057;-75
2022/01/22 04:03:56;;;;;;;7.90;2.55;;;;;;;;;;4966911;28;20050;-74
2022/01/22 04:09:05;;;;;;;3.10;2.78;;;;;;;;;;4972510;28;20062;-74
2022/01/22 04:11:37;;;;;;;3.65;3.05;;;;;;;;;;4964901;28;20050;-74
2022/01/22 04:14:07;;;;;;;4.90;2.42;;;;;;;;;;4974419;28;20046;-74
2022/01/22 04:16:37;;;;;;;5.90;3.17;;;;;;;;;;4968724;28;20081;-74
2022/01/22 04:24:52;;;;;;;2.92;2.72;;;;;;;;;;4993453;28;20046;-73
2022/01/22 04:27:27;;;;;;;5.73;2.87;;;;;;;;;;4993061;28;20072;-73
2022/01/22 04:29:57;;;;;;;5.57;2.78;;;;;;;;;;4991967;28;20053;-74
2022/01/22 04:32:25;;;;;;;3.40;3.05;;;;;;;;;;4991951;28;20498;-74
2022/01/22 04:34:53;;;;;;;3.08;2.78;;;;;;;;;;4999937;28;20135;-73
2022/01/22 04:37:21;;;;;;;3.58;2.80;;;;;;;;;;5023927;28;20141;-73
2022/01/22 04:39:49;;;;;;;2.75;2.55;;;;;;;;;;5039791;28;20048;-74
2022/01/22 04:42:17;;;;;;;3.28;2.90;;;;;;;;;;5049052;28;20049;-74
2022/01/22 04:44:56;;;;;;;3.70;3.28;;;;;;;;;;5051230;28;20673;-74
2022/01/22 04:55:41;;;;;;;3.33;2.92;;;;;;;;;;5050182;28;20049;-74
2022/01/22 04:58:09;;;;;;;4.03;2.83;;;;;;;;;;5049165;28;20041;-74
2022/01/22 05:00:39;;;;;;;3.75;3.00;;;;;;;;;;5047883;28;20040;-73
2022/01/22 05:03:10;;;;;;;3.50;3.20;;;;;;;;;;5049563;28;20041;-73
2022/01/22 05:05:43;;;;;;;3.92;3.00;;;;;;;;;;5049217;28;20060;-73
2022/01/22 05:08:33;;;;;;;3.75;3.45;;;;;;;;;;5030512;28;20067;-74
2022/01/22 05:11:10;;;;;;;9.43;4.03;;;;;;;;;;5037367;28;20053;-74
2022/01/22 05:13:40;;;;;;;7.60;4.10;;;;;;;;;;5049967;28;20249;-73
2022/01/22 05:16:10;;;;;;;3.47;3.20;;;;;;;;;;5014968;28;20053;-74
2022/01/22 05:18:47;;;;;;;4.45;3.80;;;;;;;;;;5048291;28;20041;-73
2022/01/22 05:21:17;;;;;;;5.70;3.58;;;;;;;;;;5047748;28;20037;-72
2022/01/22 05:23:45;;;;;;;5.75;3.88;;;;;;;;;;5030505;28;20406;-73
2022/01/22 05:26:42;;;;;;;4.72;4.20;;;;;;;;;;5006433;28;20041;-73
2022/01/22 05:29:19;;;;;;;6.05;4.15;;;;;;;;;;5045807;28;20053;-73
2022/01/22 05:37:55;;;;;;;6.53;4.90;;;;;;;;;;4971122;28;20140;-73
2022/01/22 05:40:23;;;;;;;5.47;4.68;;;;;;;;;;4966134;28;20043;-73
2022/01/22 05:42:50;;;;;;;11.02;5.18;;;;;;;;;;4968311;28;20509;-73
2022/01/22 05:45:17;;;;;;;5.22;4.28;;;;;;;;;;4969813;28;20038;-73
2022/01/22 05:47:45;;;;;;;5.07;4.57;;;;;;;;;;4988105;28;20038;-72
2022/01/22 05:50:26;;;;;;;6.10;5.00;;;;;;;;;;4970571;28;20070;-74
2022/01/22 05:52:58;;;;;;;11.77;4.82;;;;;;;;;;4988475;28;20091;-73
2022/01/22 06:00:52;;;;;;;;;;;;;;;;;;4979088;28;20046;-73
2022/01/22 06:03:36;;;;;;;5.05;4.63;;;;;;;;;;4987747;28;19921;-72
2022/01/22 06:06:04;;;;;;;10.48;5.60;;;;;;;;;;4981931;28;20038;-72
2022/01/22 06:08:38;;;;;;;6.93;5.22;;;;;;;;;;4988513;28;20058;-73
2022/01/22 06:11:11;;;;;;;6.68;5.30;;;;;;;;;;5044463;28;20037;-72
2022/01/22 06:13:44;;;;;;;8.45;4.90;;;;;;;;;;5046010;28;20316;-72
2022/01/22 06:16:16;;;;;;;5.40;4.90;;;;;;;;;;5043492;28;20424;-72
2022/01/22 06:19:21;;;;;;;6.57;5.60;;;;;;;;;;4982073;28;20664;-72
2022/01/22 06:21:51;;;;;;;4.43;4.10;;;;;;;;;;4980158;28;20145;-72
2022/01/22 06:24:22;;;;;;;8.13;5.43;;;;;;;;;;4985628;28;20074;-71
2022/01/22 06:26:50;;;;;;;7.28;5.85;;;;;;;;;;4970601;28;20138;-73
2022/01/22 06:29:19;;;;;;;4.97;4.57;;;;;;;;;;4986019;28;20109;-72
2022/01/22 06:31:48;;;;;;;11.65;6.05;;;;;;;;;;4986832;28;20510;-72
2022/01/22 06:34:17;;;;;;;17.08;7.35;;;;;;;;;;4984408;28;20050;-72
2022/01/22 06:36:44;;;;;;;11.57;5.97;;;;;;;;;;4986822;28;20479;-75
2022/01/22 06:39:15;;;;;;;8.20;5.38;;;;;;;;;;4983250;28;20133;-70
2022/01/22 06:42:01;;;;;;;9.23;5.78;;;;;;;;;;4987475;28;20506;-72
2022/01/22 06:44:44;;;;;;;;;;;;;;;;;;4985746;28;20061;-72
2022/01/22 06:47:30;;;;;;;10.20;5.80;;;;;;;;;;4986472;28;19922;-72
2022/01/22 06:50:10;;;;;;;7.03;5.30;;;;;;;;;;4997168;28;20061;-74
2022/01/22 06:52:59;;;;;;;6.97;6.00;;;;;;;;;;5034933;28;20045;-73
2022/01/22 06:55:50;;;;;;;6.88;5.40;;;;;;;;;;5027728;28;20053;-72
2022/01/22 06:58:18;;;;;;;5.28;4.38;;;;;;;;;;5046187;28;20049;-72
2022/01/22 07:00:54;;;;;;;6.45;5.25;;;;;;;;;;5045758;28;20053;-74
2022/01/22 07:03:24;;;;;;;18.20;6.55;;;;;;;;;;5046301;28;20444;-74
2022/01/22 07:06:02;;;;;;;8.38;6.57;;;;;;;;;;5036103;28;20108;-74
2022/01/22 07:08:33;;;;;;;10.90;6.22;;;;;;;;;;5035149;28;20132;-73
2022/01/22 07:11:02;;;;;;;6.93;5.85;;;;;;;;;;5038693;28;20052;-72
2022/01/22 07:13:31;;;;;;;8.82;6.22;;;;;;;;;;5044573;28;20128;-72
2022/01/22 07:16:00;;;;;;;11.88;6.30;;;;;;;;;;5050418;28;20044;-71
2022/01/22 07:18:29;;;;;;;8.55;6.60;;;;;;;;;;5049931;28;20060;-73
2022/01/22 07:21:02;;;;;;;10.63;6.53;;;;;;;;;;5046461;28;20104;-72
2022/01/22 07:23:56;;;;;;;8.00;6.05;;;;;;;;;;5032787;28;20037;-74
2022/01/22 07:26:27;;;;;;;4.93;4.53;;;;;;;;;;5048264;28;20037;-72
2022/01/22 07:28:59;;;;;;;14.57;6.63;;;;;;;;;;5048042;28;20065;-75
2022/01/22 07:31:28;;;;;;;10.77;6.63;;;;;;;;;;5046537;28;20091;-72
2022/01/22 07:34:01;;;;;;;6.82;5.55;;;;;;;;;;5050322;28;20151;-72
2022/01/22 07:36:29;;;;;;;10.40;7.03;;;;;;;;;;5038948;28;20096;-72
2022/01/22 07:38:56;;;;;;;6.60;5.82;;;;;;;;;;5049104;28;20040;-74
2022/01/22 07:41:24;;;;;;;12.02;7.65;;;;;;;;;;5049115;28;20043;-73
2022/01/22 07:44:24;;;;;;;7.68;6.28;;;;;;;;;;5051130;28;20037;-72
2022/01/22 07:46:54;;;;;;;5.40;4.88;;;;;;;;;;5048636;28;20400;-71
2022/01/22 07:49:24;;;;;;;15.23;8.23;;;;;;;;;;5049350;28;20037;-72
2022/01/22 07:51:54;;;;;;;10.07;6.93;;;;;;;;;;5035629;28;20049;-72
2022/01/22 07:54:23;;;;;;;20.30;9.05;;;;;;;;;;5012646;28;20132;-72
2022/01/22 07:56:52;;;;;;;12.57;7.93;;;;;;;;;;5046172;28;20090;-72
2022/01/22 07:59:20;;;;;;;11.07;7.40;;;;;;;;;;5048468;28;20116;-72
2022/01/22 08:01:51;;;;;;;14.18;8.18;;;;;;;;;;5049571;28;20045;-72
2022/01/22 08:04:24;;;;;;;8.85;7.15;;;;;;;;;;5049782;28;20048;-73
2022/01/22 08:06:57;;;;;;;11.02;7.22;;;1.30;99.90;;;;;;5046441;28;20136;-72
2022/01/22 08:09:44;;;;;;;6.82;6.20;;;;;;;;;;5033290;28;20088;-72
2022/01/22 08:12:30;;;;;;;16.38;8.63;;;;;;;;;;5037234;28;20048;-71
2022/01/22 08:15:05;;;;;;;18.20;9.77;;;;;;;;;;5041773;28;20083;-71
2022/01/22 08:17:32;;;;;;;17.60;9.25;;;;;;;;;;5032761;28;20042;-71
2022/01/22 08:20:00;;;;;;;21.83;11.10;;;;;;;;;;5036182;28;20045;-71
2022/01/22 08:22:48;;;;;;;16.75;9.90;;;;;;;;;;5010513;28;20228;-71
2022/01/22 08:25:35;;;;;;;17.38;9.50;;;;;;;;;;5036477;28;20041;-72
2022/01/22 08:37:01;;;;;;;14.95;9.23;;;;;;;;;;4993372;28;20374;-72
2022/01/22 08:39:29;;;;;;;31.67;11.65;;;;;;;;;;5016134;28;20057;-72
2022/01/22 08:41:57;;;;;;;15.50;8.80;;;;;;;;;;5005401;28;20048;-72
2022/01/22 08:44:25;;;;;;;22.50;10.65;;;;;;;;;;4992224;28;20108;-72
2022/01/22 08:46:53;;;;;;;18.95;9.82;;;;;;;;;;4996715;28;20046;-73
2022/01/22 08:49:22;;;;;;;22.02;10.73;;;;;;;;;;5011414;28;20360;-71
2022/01/22 08:52:01;;;;;;;25.75;11.75;;;;;;;;;;4991838;28;20119;-74
2022/01/22 08:54:29;;;;;;;43.08;14.77;;;;;;;;;;4994989;28;20107;-75
2022/01/22 08:56:58;;;;;;;9.70;7.10;;;;;;;;;;5000406;28;20095;-73
2022/01/22 08:59:26;;;;;;;26.25;12.38;;;;;;;;;;4992214;28;20049;-73
2022/01/22 09:01:57;;;;;;;37.40;13.52;;;;;;;;;;4995282;28;20049;-73
2022/01/22 09:04:46;;;;;;;12.57;7.57;;;;;;;;;;4983269;28;20602;-72
2022/01/22 09:07:35;;;;;;;35.30;14.13;;;;;;;;;;4997072;28;20340;-71
2022/01/22 09:10:26;;;;;;;9.50;6.50;;;;;;;;;;5009924;28;20064;-74
2022/01/22 09:13:24;;;;;;;12.88;7.85;;;;;;;;;;4929610;29;20241;-73
2022/01/22 09:16:04;;;;;;;14.05;9.32;;;;;;;;;;4952777;28;20684;-72
2022/01/22 09:18:32;;;;;;;22.25;10.55;;;;;;;;;;4958166;28;20108;-74
2022/01/22 09:23:29;;;;;;;49.78;17.25;;;;;;;;;;4956994;28;20046;-74
2022/01/22 09:25:57;;;;;;;10.32;7.95;;;;;;;;;;4970714;28;20042;-73
2022/01/22 09:28:26;;;;;;;18.73;10.45;;;;;;;;;;4953984;28;20207;-74
2022/01/22 09:30:57;;;;;;;;;;;;;;;;;;4952714;28;20069;-73
2022/01/22 09:33:26;;;;;;;35.85;13.50;;;;;;;;;;4955346;28;20514;-74
2022/01/22 09:36:12;;;;;;;8.90;7.95;;;;;;;;;;4969249;28;20062;-73
2022/01/22 09:39:09;;;;;;;29.20;13.15;;;;;;;;;;4968557;28;20078;-72
2022/01/22 09:41:50;;;;;;;22.70;11.38;;;;;;;;;;4952213;28;20050;-73
2022/01/22 09:44:41;;;;;;;24.38;11.07;;;;;;;;;;4968611;28;20640;-74
2022/01/22 09:47:43;;;;;;;11.95;8.65;;;;;;;;;;4955614;28;20113;-74
2022/01/22 09:50:31;;;;;;;29.65;13.65;;;;;;;;;;5014191;28;20060;-72
2022/01/22 09:53:31;;;;;;;7.32;6.30;;;;;;;;;;5004816;28;20051;-72
2022/01/22 09:56:23;;;;;;;18.90;11.15;;;;;;;;;;5033443;28;20124;-74
2022/01/22 09:59:10;;;;;;;15.23;8.60;;;;;;;;;;5033854;28;20135;-73
2022/01/22 10:02:10;;;;;;;11.77;9.70;;;;;;;;;;5037607;28;20470;-72
2022/01/22 10:04:38;;;;;;;;;;;;;;;;;;5033368;28;20049;-72
2022/01/22 10:07:28;;;;;;;17.85;10.50;;;;;;;;;;5033086;28;20303;-72
2022/01/22 10:10:08;;;;;;;23.17;12.82;;;;;;;;;;5030819;28;20508;-75
2022/01/22 10:12:45;;;;;;;14.68;9.70;;;;;;;;;;5033875;28;20116;-72
2022/01/22 10:15:35;;;;;;;22.13;13.05;;;;;;;;;;5032603;28;20077;-74
2022/01/22 10:18:13;;;;;;;13.07;9.77;;;;;;;;;;5032644;28;20063;-74
2022/01/22 10:20:41;;;;;;;17.92;10.95;;;;;;;;;;5032948;28;20128;-73
2022/01/22 10:23:19;;;;;;;13.88;9.50;;;;;;;;;;5035297;28;20511;-74
2022/01/22 10:25:54;;;;;;;7.82;6.90;;;;;;;;;;5028827;28;20068;-72
2022/01/22 10:28:24;;;;;;;7.53;6.80;;;;;;;;;;5026282;28;20123;-74
2022/01/22 10:30:58;;;;;;;10.95;8.82;;;;;;;;;;5032250;28;20136;-73
2022/01/22 10:34:06;;;;;;;15.73;9.27;;;;;;;;;;4993690;28;20044;-73
2022/01/22 10:36:59;;;;;;;15.88;11.13;;;;;;;;;;5034145;28;20087;-72
2022/01/22 10:39:45;;;;;;;31.13;15.35;;;;;;;;;;5031288;28;20049;-74
2022/01/22 10:42:20;;;;;;;14.65;9.90;;;;;;;;;;5030214;28;20046;-75
2022/01/22 10:44:49;;;;;;;8.32;7.32;;;;;;;;;;5032945;28;20088;-74
2022/01/22 10:47:22;;;;;;;13.85;10.40;;;;;;;;;;5033393;28;20110;-73
2022/01/22 10:49:49;;;;;;;18.00;11.48;;;;;;;;;;5037202;28;20047;-74
2022/01/22 10:52:17;;;;;;;16.73;11.52;;;;;;;;;;5034631;28;20043;-73
2022/01/22 10:54:46;;;;;;;9.50;7.13;;;;;;;;;;5037608;28;20134;-73
2022/01/22 10:57:16;;;;;;;7.45;5.97;;;;;;;;;;5035616;28;20525;-73
2022/01/22 10:59:47;;;;;;;15.95;11.07;;;;;;;;;;5039040;28;20041;-74
2022/01/22 11:02:17;;;;;;;8.32;7.50;;;;;;;;;;5038645;28;20131;-74
2022/01/22 11:04:45;;;;;;;12.57;9.82;;;;;;;;;;5034696;28;20041;-76
2022/01/22 11:07:17;;;;;;;12.95;8.52;;;;;;;;;;5031302;28;20037;-74
2022/01/22 11:09:53;;;;;;;11.27;8.70;;;;;;;;;;5028614;28;21490;-74
2022/01/22 11:12:21;;;;;;;11.48;9.02;;;;;;;;;;5027268;28;20171;-75
2022/01/22 11:14:48;;;;;;;12.88;9.82;;;;;;;;;;5034604;28;20126;-76
2022/01/22 11:17:15;;;;;;;12.70;7.93;;;;;;;;;;5038768;28;20029;-74
2022/01/22 11:19:46;;;;;;;11.23;8.48;;;;;;;;;;5032572;28;20123;-73
2022/01/22 11:22:15;;;;;;;10.80;9.18;;;;;;;;;;5031246;28;20497;-73
2022/01/22 11:24:47;;;;;;;11.65;8.38;;;;;;;;;;5029273;28;20037;-73
2022/01/22 11:27:18;;;;;;;19.80;12.15;;;;;;;;;;5034301;28;20131;-75
2022/01/22 11:29:48;;;;;;;10.90;9.30;;;;;;;;;;5034162;28;20041;-74
2022/01/22 11:32:17;;;;;;;15.98;11.32;;;;;;;;;;5031728;28;20671;-74
2022/01/22 11:34:47;;;;;;;11.65;7.75;;;;;;;;;;5029571;28;20041;-74
2022/01/22 11:37:36;;;;;;;18.92;11.25;;;;;;;;;;5031175;28;20048;-73
2022/01/22 11:40:20;;;;;;;6.35;5.35;;;;;;;;;;5032351;28;20132;-74
2022/01/22 11:43:03;;;;;;;10.07;7.70;;;;;;;;;;5034529;28;20048;-74
2022/01/22 11:45:41;;;;;;;8.70;7.10;;;;;;;;;;5031704;28;20488;-75
2022/01/22 11:48:16;;;;;;;10.20;7.97;;;;;;;;;;5038840;28;20554;-73
2022/01/22 11:50:49;;;;;;;16.95;9.02;;;;;;;;;;5033192;28;20049;-74
2022/01/22 11:53:37;;;;;;;8.20;7.40;;;;;;;;;;5029908;28;20057;-74
2022/01/22 11:56:10;;;;;;;12.38;9.00;;;;;;;;;;5027837;28;20530;-74
2022/01/22 11:58:56;;;;;;;6.47;5.88;;;;;;;;;;5030556;28;20037;-75
2022/01/22 12:04:17;;;;;;;13.13;9.55;;;;;;;;;;5049000;28;20041;-73
2022/01/22 12:07:03;;;;;;;16.43;10.87;;;;;;;;;;5025150;28;20571;-74
2022/01/22 12:15:10;;;;;;;5.82;5.25;;;;;;;;;;5029700;28;20134;-74
2022/01/22 12:17:51;;;;;;;11.70;8.68;;;;;;;;;;5028417;28;20045;-73
2022/01/22 12:23:04;;;;;;;10.90;8.88;;;;;;;;;;5032080;28;20041;-74
2022/01/22 12:25:31;;;;;;;12.05;9.02;;;;;;;;;;5029812;28;20411;-75
2022/01/22 12:27:59;;;;;;;12.93;10.52;;;;;;;;;;5029635;28;20140;-76
2022/01/22 12:30:36;;;;;;;12.32;9.40;;;;;;;;;;5029779;28;20052;-72
2022/01/22 12:33:06;;;;;;;10.05;8.27;;;;;;;;;;5029613;28;20409;-75
2022/01/22 12:35:34;;;;;;;11.85;10.02;;;;;;;;;;5029059;28;20137;-75
2022/01/22 12:38:23;;;;;;;9.98;8.10;;;;;;;;;;5028085;28;20084;-75
2022/01/22 12:40:55;;;;;;;10.82;9.70;;;;;;;;;;5042940;28;20126;-75
2022/01/22 12:43:32;;;;;;;10.43;9.20;;;;;;;;;;5029249;28;20045;-73
2022/01/22 12:46:00;;;;;;;8.15;6.13;;;;;;;;;;5029393;28;20033;-74
2022/01/22 12:48:29;;;;;;;13.65;10.07;;;;;;;;;;5032300;28;20043;-75
2022/01/22 12:51:14;;;;;;;8.50;6.88;;;;;;;;;;5033327;28;20044;-73
2022/01/22 12:53:47;;;;;;;8.55;7.60;;;;;;;;;;5028183;28;20041;-72
2022/01/22 12:59:04;;;;;;;9.70;8.70;;;;;;;;;;5031130;28;20311;-72
2022/01/22 13:01:34;;;;;;;13.63;10.77;;;;;;;;;;5031162;28;20593;-73
2022/01/22 13:04:04;;;;;;;15.73;11.98;;;;;;;;;;5031078;28;20349;-72
2022/01/22 13:06:51;;;;;;;12.23;9.63;;;;;;;;;;5009301;28;20788;-73
2022/01/22 13:09:48;;;;;;;15.45;11.20;;;;;;;;;;5027560;28;20037;-76
2022/01/22 13:12:16;;;;;;;10.38;9.07;;;;;;;;;;5029495;28;20547;-75
2022/01/22 13:14:43;;;;;;;15.48;11.63;;;;;;;;;;5032852;28;20099;-76
2022/01/22 13:17:15;;;;;;;17.95;10.88;;;;;;;;;;5016606;28;20457;-74
2022/01/22 13:19:42;;;;;;;13.23;10.68;;;;;;;;;;5031550;28;20043;-74
2022/01/22 13:22:10;;;;;;;16.75;10.27;;;;;;;;;;5031965;28;20125;-74
2022/01/22 13:24:37;;;;;;;13.30;9.57;;;;;;;;;;5031457;28;20463;-74
2022/01/22 13:27:12;;;;;;;13.85;10.25;;;;;;;;;;5035210;28;20755;-74
2022/01/22 13:29:41;;;;;;;14.38;10.52;;;;;;;;;;5033830;28;20069;-74
2022/01/22 13:32:28;;;;;;;11.55;9.50;;;;;;;;;;5031999;28;20036;-74
2022/01/22 13:48:55;;;;;;;12.57;8.70;;;;;;;;;;5033957;28;20917;-74
2022/01/22 13:51:22;;;;;;;16.77;11.77;;;;;;;;;;5034934;28;20124;-76
2022/01/22 13:53:50;;;;;;;7.43;6.45;;;;;;;;;;5032396;28;20045;-73
2022/01/22 13:56:18;;;;;;;10.75;9.05;;;;;;;;;;5033977;28;20138;-74
2022/01/22 13:58:45;;;;;;;19.42;12.02;;;;;;;;;;5018550;28;20148;-74
2022/01/22 14:01:28;;;;;;;9.77;8.07;;;;;;;;;;5033305;28;20049;-74
2022/01/22 14:04:10;;;;;;;9.05;8.15;;;;;;;;;;5037251;28;20064;-74
2022/01/22 14:06:37;;;;;;;13.45;9.77;;;;;;;;;;5034916;28;20089;-74
2022/01/22 14:09:13;;;;;;;8.50;7.63;;;;;;;;;;5036731;28;20041;-73
2022/01/22 14:11:59;;;;;;;10.68;9.10;;;;;;;;;;5034417;28;20041;-73
2022/01/22 14:14:30;;;;;;;14.70;11.10;;;;;;;;;;5034897;28;20765;-73
2022/01/22 14:17:09;;;;;;;11.73;7.93;;;;;;;;;;5034092;28;20076;-73
2022/01/22 14:19:39;;;;;;;12.30;10.45;;;;;;;;;;5035129;28;20492;-73
2022/01/22 14:22:06;;;;;;;15.55;10.82;;;;;;;;;;5037977;28;20666;-74
2022/01/22 14:24:34;;;;;;;7.97;6.93;;;;;;;;;;5036999;28;20043;-73
2022/01/22 14:27:01;;;;;;;12.38;9.30;;;;;;;;;;5022561;28;20306;-73
2022/01/22 14:29:28;;;;;;;16.88;11.35;;;;;;;;;;5010916;28;20084;-74
2022/01/22 14:31:59;;;;;;;11.43;9.82;;;;;;;;;;5014656;28;20964;-73
2022/01/22 14:34:42;;;;;;;10.85;9.73;;;;;;;;;;5015107;28;20184;-73
2022/01/22 14:37:23;;;;;;;13.00;10.68;;;;;;;;;;5014451;28;20050;-74
2022/01/22 14:45:28;;;;;;;15.13;11.60;;;;;;;;;;5015283;28;20041;-73
2022/01/22 14:47:57;;;;;;;18.38;12.88;;;;;;;;;;5016610;28;20057;-73
2022/01/22 14:50:29;;;;;;;12.82;10.35;;;;;;;;;;5012432;28;20056;-73
2022/01/22 14:52:57;;;;;;;23.92;14.93;;;;;;;;;;5018365;28;20049;-73
2022/01/22 14:55:26;;;;;;;14.85;11.32;;;;;;;;;;4996779;28;20050;-73
2022/01/22 14:57:53;;;;;;;13.57;11.50;;;;;;;;;;5013549;28;20394;-74
2022/01/22 15:00:21;;;;;;;16.15;11.98;;;;;;;;;;5023844;28;20592;-73
2022/01/22 15:02:48;;;;;;;16.17;10.35;;;;;;;;;;5041578;28;20129;-72
2022/01/22 15:05:17;;;;;;;19.85;14.07;;;;;;;;;;5037174;28;20041;-73
2022/01/22 15:07:45;;;;;;;11.15;9.73;;;;;;;;;;5038731;28;20152;-73
2022/01/22 15:10:16;;;;;;;9.55;8.60;;;;;;;;;;5038027;28;20048;-73
2022/01/22 15:12:43;;;;;;;18.33;12.93;;;;;;;;;;5036756;28;20106;-73
2022/01/22 15:15:35;;;;;;;24.77;14.85;;;;;;;;;;5033070;28;20061;-73
2022/01/22 15:18:13;;;;;;;11.93;9.25;;;;;;;;;;5050632;28;20394;-74
2022/01/22 15:20:41;;;;;;;14.48;11.10;;;;;;;;;;5033921;28;20080;-73
2022/01/22 15:23:08;;;;;;;14.43;11.13;;;;;;;;;;5051872;28;20037;-73
2022/01/22 15:25:36;;;;;;;12.50;10.95;;;;;;;;;;5035885;28;20463;-72
2022/01/22 15:28:03;;;;;;;16.30;11.98;;;;;;;;;;5039350;28;20068;-72
2022/01/22 15:30:34;;;;;;;13.55;11.20;;;;;;;;;;5034537;28;20508;-72
2022/01/22 15:35:30;;;;;;;22.80;14.80;;;;;;;;;;5032092;28;20132;-73
2022/01/22 15:37:59;;;;;;;21.65;14.25;;;;;;;;;;5026195;28;20546;-72
2022/01/22 15:40:28;;;;;;;14.70;12.85;;;;;;;;;;5022881;28;20468;-72
2022/01/22 15:42:56;;;;;;;17.55;12.40;;;;;;;;;;5024535;28;20497;-72
2022/01/22 15:45:24;;;;;;;18.05;13.57;;;;;;;;;;5033197;28;20518;-72
2022/01/22 15:47:52;;;;;;;17.60;14.00;;;;;;;;;;5036151;28;20479;-73
2022/01/22 15:50:20;;;;;;;18.35;13.98;;;;;;;;;;5035575;28;20132;-73
2022/01/22 15:53:08;;;;;;;17.42;12.48;;;;;;;;;;5035327;28;20358;-72
2022/01/22 15:55:35;;;;;;;19.40;15.07;;;;;;;;;;5038560;28;20131;-72
2022/01/22 15:58:03;;;;;;;13.90;9.77;;;;;;;;;;5036834;28;20044;-72
2022/01/22 16:00:35;;;;;;;18.95;13.07;;;;;;;;;;5034012;28;20522;-73
2022/01/22 16:03:03;;;;;;;16.27;11.70;;;;;;;;;;5036424;28;20080;-73
2022/01/22 16:05:31;;;;;;;22.33;15.70;;;;;;;;;;5035255;28;20044;-73
2022/01/22 16:07:59;;;;;;;21.55;14.30;;;;;;;;;;5032958;28;20805;-73
2022/01/22 16:10:47;;;;;;;14.90;11.52;;;;;;;;;;5032374;28;20117;-73
2022/01/22 16:13:18;;;;;;;27.38;17.23;;;;;;;;;;5037398;28;20087;-73
2022/01/22 16:15:46;;;;;;;25.73;17.02;;;;;;;;;;5038374;28;20435;-73
2022/01/22 16:18:13;;;;;;;18.35;14.57;;;;;;;;;;5008700;28;20127;-73
2022/01/22 16:20:41;;;;;;;24.35;16.33;;;;;;;;;;5010881;28;20057;-73
2022/01/22 16:23:08;;;;;;;13.30;11.07;;;;;;;;;;5013067;28;20164;-72
2022/01/22 16:25:41;;;;;;;16.60;13.40;;;;;;;;;;5010582;28;20046;-73
2022/01/22 16:28:08;;;;;;;24.05;16.00;;;;;;;;;;5015080;28;20144;-72
2022/01/22 16:30:35;;;;;;;22.70;14.82;;;;;;;;;;5009319;28;20421;-72
2022/01/22 16:33:04;;;;;;;17.92;13.73;;;;;;;;;;5013433;28;20081;-72
2022/01/22 16:35:31;;;;;;;20.48;14.48;;;;;;;;;;5010257;28;20387;-72
2022/01/22 16:37:58;;;;;;;33.20;17.52;;;;;;;;;;5008216;28;20049;-71
2022/01/22 16:40:28;;;;;;;28.15;16.30;;;;;;;;;;5012499;28;20049;-71
2022/01/22 16:43:02;;;;;;;25.27;15.60;;;;;;;;;;4993826;28;20134;-72
2022/01/22 16:45:51;;;;;;;23.05;15.05;;;;;;;;;;4988320;28;20092;-72
2022/01/22 16:51:20;;;;;;;23.80;15.15;;;;;;;;;;5024226;28;20043;-72
2022/01/22 16:56:45;;;;;;;22.90;15.45;;;;;;;;;;5032210;28;20049;-73
2022/01/22 16:59:32;;;;;;;18.10;12.63;;;;;;;;;;5030385;28;20075;-71
2022/01/22 17:02:03;;;;;;;28.25;15.75;;;;;;;;;;5025240;28;20033;-71
2022/01/22 17:04:39;;;;;;;32.08;17.13;;;;;;;;;;5028712;28;20041;-71
2022/01/22 17:07:11;;;;;;;24.77;15.98;;;;;;;;;;5032173;28;20041;-72
2022/01/22 17:14:52;;;;;;;13.25;10.80;;;;;;;;;;5032112;28;20897;-73
2022/01/22 17:17:23;;;;;;;27.65;15.27;;;;;;;;;;5013088;28;20045;-72